This is the latest recevied weather packets stored in our database for station/object F1DKL-13. If no packets are shown the sender has not sent any weather packets the latest 10 day(s).
| Time | Temp. | Humidity | Pressure | Rain* | Wind** | Luminosity | Snow |
|---|---|---|---|---|---|---|---|
| 1778143806 | 20° C | 33% | 1020.4 hPa | 0 mm | - | - | - |
| 1778143506 | 20° C | 33% | 1020.4 hPa | 0 mm | - | - | - |
| 1778143206 | 19.44° C | 33% | 1020.4 hPa | 0 mm | - | - | - |
| 1778142906 | 19.44° C | 34% | 1020.4 hPa | 0 mm | - | - | - |
| 1778142606 | 18.89° C | 34% | 1020.4 hPa | 0 mm | - | - | - |
| 1778142306 | 19.44° C | 34% | 1020.4 hPa | 0 mm | - | - | - |
| 1778142006 | 19.44° C | 33% | 1020.4 hPa | 0 mm | - | - | - |
| 1778141706 | 20° C | 39% | 1020.4 hPa | 0 mm | - | - | - |
| 1778141406 | 20° C | 40% | 1020.4 hPa | 0 mm | - | - | - |
| 1778141106 | 19.44° C | 44% | 1020.4 hPa | 0 mm | - | - | - |
| 1778140806 | 18.33° C | 43% | 1020.4 hPa | 0 mm | - | - | - |
| 1778140506 | 17.78° C | 44% | 1020.4 hPa | 0 mm | - | - | - |
| 1778140206 | 17.78° C | 44% | 1020.4 hPa | 0 mm | - | - | - |
| 1778139906 | 17.22° C | 45% | 1020.4 hPa | 0 mm | - | - | - |
| 1778139606 | 17.22° C | 45% | 1020.4 hPa | 0 mm | - | - | - |
| 1778139306 | 16.67° C | 48% | 1020.4 hPa | 0 mm | - | - | - |
| 1778139006 | 16.67° C | 52% | 1020.4 hPa | 0 mm | - | - | - |
| 1778138706 | 16.67° C | 55% | 1019.3 hPa | 0 mm | - | - | - |
| 1778138406 | 16.11° C | 55% | 1019.3 hPa | 0 mm | - | - | - |
| 1778138106 | 15.56° C | 57% | 1019.3 hPa | 0 mm | - | - | - |
| 1778137806 | 15.56° C | 60% | 1020.4 hPa | 0 mm | - | - | - |
| 1778133306 | 7.78° C | 98% | 1020.4 hPa | 0 mm | - | - | - |
| 1778133006 | 7.78° C | 98% | 1020.4 hPa | 0 mm | - | - | - |
| 1778132706 | 7.22° C | 98% | 1020.4 hPa | 0 mm | - | - | - |
| 1778132406 | 6.67° C | 98% | 1020.4 hPa | 0 mm | - | - | - |
* Rain latest hour (hover to see other rain measurements)
** Current wind speed in m/s (hover to see current wind gust speed)